sensor_id;sensor_type;location;lat;lon;timestamp;temperature;humidity
76751;SHT31;65216;51.090;-115.352;2023-10-08T00:01:17;24.23;25.00
76751;SHT31;65216;51.090;-115.352;2023-10-08T00:03:50;24.23;24.82
76751;SHT31;65216;51.090;-115.352;2023-10-08T00:06:23;24.24;24.77
76751;SHT31;65216;51.090;-115.352;2023-10-08T00:08:51;24.21;24.78
76751;SHT31;65216;51.090;-115.352;2023-10-08T00:11:26;24.18;24.77
76751;SHT31;65216;51.090;-115.352;2023-10-08T00:13:54;24.14;24.76
76751;SHT31;65216;51.090;-115.352;2023-10-08T00:16:22;24.10;24.85
76751;SHT31;65216;51.090;-115.352;2023-10-08T00:18:51;24.05;24.96
76751;SHT31;65216;51.090;-115.352;2023-10-08T00:21:25;24.00;25.06
76751;SHT31;65216;51.090;-115.352;2023-10-08T00:23:52;23.94;25.18
76751;SHT31;65216;51.090;-115.352;2023-10-08T00:26:26;23.88;25.20
76751;SHT31;65216;51.090;-115.352;2023-10-08T00:28:57;23.83;25.28
76751;SHT31;65216;51.090;-115.352;2023-10-08T00:31:33;23.78;25.44
76751;SHT31;65216;51.090;-115.352;2023-10-08T00:34:04;23.72;25.64
76751;SHT31;65216;51.090;-115.352;2023-10-08T00:36:31;23.68;25.69
76751;SHT31;65216;51.090;-115.352;2023-10-08T00:38:59;23.65;25.79
76751;SHT31;65216;51.090;-115.352;2023-10-08T00:41:33;23.61;25.87
76751;SHT31;65216;51.090;-115.352;2023-10-08T00:44:00;23.57;25.92
76751;SHT31;65216;51.090;-115.352;2023-10-08T00:46:31;23.53;26.02
76751;SHT31;65216;51.090;-115.352;2023-10-08T00:49:01;23.50;26.06
76751;SHT31;65216;51.090;-115.352;2023-10-08T00:51:45;23.48;26.14
76751;SHT31;65216;51.090;-115.352;2023-10-08T00:54:12;23.46;26.19
76751;SHT31;65216;51.090;-115.352;2023-10-08T00:56:46;23.40;26.18
76751;SHT31;65216;51.090;-115.352;2023-10-08T00:59:16;23.37;26.26
76751;SHT31;65216;51.090;-115.352;2023-10-08T01:01:46;23.34;26.34
76751;SHT31;65216;51.090;-115.352;2023-10-08T01:04:19;23.33;26.41
76751;SHT31;65216;51.090;-115.352;2023-10-08T01:06:51;23.31;26.48
76751;SHT31;65216;51.090;-115.352;2023-10-08T01:09:28;23.27;26.61
76751;SHT31;65216;51.090;-115.352;2023-10-08T01:12:14;23.22;26.72
76751;SHT31;65216;51.090;-115.352;2023-10-08T01:14:55;23.18;26.80
76751;SHT31;65216;51.090;-115.352;2023-10-08T01:17:38;23.14;26.87
76751;SHT31;65216;51.090;-115.352;2023-10-08T01:20:15;23.12;26.94
76751;SHT31;65216;51.090;-115.352;2023-10-08T01:23:00;23.11;26.99
76751;SHT31;65216;51.090;-115.352;2023-10-08T01:25:47;23.07;27.07
76751;SHT31;65216;51.090;-115.352;2023-10-08T01:28:19;23.02;27.19
76751;SHT31;65216;51.090;-115.352;2023-10-08T01:30:53;23.00;27.22
76751;SHT31;65216;51.090;-115.352;2023-10-08T01:33:25;22.98;27.23
76751;SHT31;65216;51.090;-115.352;2023-10-08T01:35:57;22.95;27.26
76751;SHT31;65216;51.090;-115.352;2023-10-08T01:38:30;22.92;27.29
76751;SHT31;65216;51.090;-115.352;2023-10-08T01:41:00;22.89;27.33
76751;SHT31;65216;51.090;-115.352;2023-10-08T01:43:31;22.85;27.44
76751;SHT31;65216;51.090;-115.352;2023-10-08T01:46:01;22.83;27.55
76751;SHT31;65216;51.090;-115.352;2023-10-08T01:48:30;22.83;27.69
76751;SHT31;65216;51.090;-115.352;2023-10-08T01:51:02;22.81;27.79
76751;SHT31;65216;51.090;-115.352;2023-10-08T01:53:35;22.76;27.78
76751;SHT31;65216;51.090;-115.352;2023-10-08T01:56:04;22.74;27.86
76751;SHT31;65216;51.090;-115.352;2023-10-08T01:58:31;22.71;27.90
76751;SHT31;65216;51.090;-115.352;2023-10-08T02:01:04;22.68;27.96
76751;SHT31;65216;51.090;-115.352;2023-10-08T02:03:37;22.68;28.01
76751;SHT31;65216;51.090;-115.352;2023-10-08T02:06:04;22.66;28.05
76751;SHT31;65216;51.090;-115.352;2023-10-08T02:08:34;22.65;28.13
76751;SHT31;65216;51.090;-115.352;2023-10-08T02:11:02;22.64;28.22
76751;SHT31;65216;51.090;-115.352;2023-10-08T02:13:28;22.63;28.30
76751;SHT31;65216;51.090;-115.352;2023-10-08T02:15:58;22.61;28.35
76751;SHT31;65216;51.090;-115.352;2023-10-08T02:18:25;22.61;28.40
76751;SHT31;65216;51.090;-115.352;2023-10-08T02:20:54;22.60;28.46
76751;SHT31;65216;51.090;-115.352;2023-10-08T02:23:21;22.59;28.51
76751;SHT31;65216;51.090;-115.352;2023-10-08T02:25:48;22.58;28.60
76751;SHT31;65216;51.090;-115.352;2023-10-08T02:28:16;22.55;28.62
76751;SHT31;65216;51.090;-115.352;2023-10-08T02:30:45;22.55;28.64
76751;SHT31;65216;51.090;-115.352;2023-10-08T02:33:12;22.55;28.66
76751;SHT31;65216;51.090;-115.352;2023-10-08T02:35:43;22.53;28.69
76751;SHT31;65216;51.090;-115.352;2023-10-08T02:38:17;22.53;28.68
76751;SHT31;65216;51.090;-115.352;2023-10-08T02:40:51;22.54;28.71
76751;SHT31;65216;51.090;-115.352;2023-10-08T02:43:22;22.54;28.62
76751;SHT31;65216;51.090;-115.352;2023-10-08T02:45:48;22.52;28.60
76751;SHT31;65216;51.090;-115.352;2023-10-08T02:48:17;22.51;28.60
76751;SHT31;65216;51.090;-115.352;2023-10-08T02:50:48;22.51;28.65
76751;SHT31;65216;51.090;-115.352;2023-10-08T02:53:18;22.50;28.60
76751;SHT31;65216;51.090;-115.352;2023-10-08T02:55:48;22.49;28.68
76751;SHT31;65216;51.090;-115.352;2023-10-08T02:58:19;22.49;28.63
76751;SHT31;65216;51.090;-115.352;2023-10-08T03:00:50;22.48;28.55
76751;SHT31;65216;51.090;-115.352;2023-10-08T03:03:18;22.46;28.48
76751;SHT31;65216;51.090;-115.352;2023-10-08T03:05:50;22.44;28.42
76751;SHT31;65216;51.090;-115.352;2023-10-08T03:08:22;22.43;28.38
76751;SHT31;65216;51.090;-115.352;2023-10-08T03:10:50;22.41;28.32
76751;SHT31;65216;51.090;-115.352;2023-10-08T03:13:28;22.40;28.27
76751;SHT31;65216;51.090;-115.352;2023-10-08T03:15:55;22.38;28.21
76751;SHT31;65216;51.090;-115.352;2023-10-08T03:18:27;22.37;28.14
76751;SHT31;65216;51.090;-115.352;2023-10-08T03:21:02;22.34;28.11
76751;SHT31;65216;51.090;-115.352;2023-10-08T03:23:39;22.34;28.05
76751;SHT31;65216;51.090;-115.352;2023-10-08T03:26:13;22.32;28.09
76751;SHT31;65216;51.090;-115.352;2023-10-08T03:29:02;22.31;28.05
76751;SHT31;65216;51.090;-115.352;2023-10-08T03:31:34;22.29;27.98
76751;SHT31;65216;51.090;-115.352;2023-10-08T03:34:14;22.28;27.90
76751;SHT31;65216;51.090;-115.352;2023-10-08T03:36:44;22.27;27.82
76751;SHT31;65216;51.090;-115.352;2023-10-08T03:39:13;22.25;27.76
76751;SHT31;65216;51.090;-115.352;2023-10-08T03:41:41;22.24;27.74
76751;SHT31;65216;51.090;-115.352;2023-10-08T03:44:25;22.24;27.68
76751;SHT31;65216;51.090;-115.352;2023-10-08T03:46:55;22.22;27.60
76751;SHT31;65216;51.090;-115.352;2023-10-08T03:49:22;22.22;27.57
76751;SHT31;65216;51.090;-115.352;2023-10-08T03:51:50;22.22;27.50
76751;SHT31;65216;51.090;-115.352;2023-10-08T03:54:18;22.20;27.44
76751;SHT31;65216;51.090;-115.352;2023-10-08T03:59:29;22.17;27.37
76751;SHT31;65216;51.090;-115.352;2023-10-08T04:02:05;22.16;27.32
76751;SHT31;65216;51.090;-115.352;2023-10-08T04:04:58;22.14;27.27
76751;SHT31;65216;51.090;-115.352;2023-10-08T04:07:28;22.13;27.20
76751;SHT31;65216;51.090;-115.352;2023-10-08T04:09:58;22.12;27.18
76751;SHT31;65216;51.090;-115.352;2023-10-08T04:12:35;22.10;27.13
76751;SHT31;65216;51.090;-115.352;2023-10-08T04:15:09;22.10;27.10
76751;SHT31;65216;51.090;-115.352;2023-10-08T04:17:41;22.09;27.04
76751;SHT31;65216;51.090;-115.352;2023-10-08T04:20:16;22.07;26.99
76751;SHT31;65216;51.090;-115.352;2023-10-08T04:22:59;22.06;26.96
76751;SHT31;65216;51.090;-115.352;2023-10-08T04:25:27;22.06;26.90
76751;SHT31;65216;51.090;-115.352;2023-10-08T04:27:56;22.05;26.91
76751;SHT31;65216;51.090;-115.352;2023-10-08T04:30:28;22.03;26.89
76751;SHT31;65216;51.090;-115.352;2023-10-08T04:33:03;22.02;26.88
76751;SHT31;65216;51.090;-115.352;2023-10-08T04:35:40;22.02;26.87
76751;SHT31;65216;51.090;-115.352;2023-10-08T04:38:16;22.00;26.87
76751;SHT31;65216;51.090;-115.352;2023-10-08T04:40:54;22.00;26.85
76751;SHT31;65216;51.090;-115.352;2023-10-08T04:43:29;21.98;26.85
76751;SHT31;65216;51.090;-115.352;2023-10-08T04:45:58;21.98;26.90
76751;SHT31;65216;51.090;-115.352;2023-10-08T04:48:31;21.97;26.91
76751;SHT31;65216;51.090;-115.352;2023-10-08T04:50:59;21.97;27.33
76751;SHT31;65216;51.090;-115.352;2023-10-08T04:53:28;21.97;27.60
76751;SHT31;65216;51.090;-115.352;2023-10-08T04:56:08;21.96;27.65
76751;SHT31;65216;51.090;-115.352;2023-10-08T04:58:48;21.93;27.86
76751;SHT31;65216;51.090;-115.352;2023-10-08T05:01:18;21.93;28.04
76751;SHT31;65216;51.090;-115.352;2023-10-08T05:04:03;21.93;28.00
76751;SHT31;65216;51.090;-115.352;2023-10-08T05:06:32;21.94;27.98
76751;SHT31;65216;51.090;-115.352;2023-10-08T05:09:01;21.94;28.05
76751;SHT31;65216;51.090;-115.352;2023-10-08T05:11:46;21.92;28.12
76751;SHT31;65216;51.090;-115.352;2023-10-08T05:17:00;21.91;27.88
76751;SHT31;65216;51.090;-115.352;2023-10-08T05:19:38;21.93;27.88
76751;SHT31;65216;51.090;-115.352;2023-10-08T05:22:07;21.93;27.85
76751;SHT31;65216;51.090;-115.352;2023-10-08T05:25:04;21.91;27.80
76751;SHT31;65216;51.090;-115.352;2023-10-08T05:27:34;21.89;27.78
76751;SHT31;65216;51.090;-115.352;2023-10-08T05:32:57;21.89;27.82
76751;SHT31;65216;51.090;-115.352;2023-10-08T05:35:43;21.89;27.77
76751;SHT31;65216;51.090;-115.352;2023-10-08T05:40:56;21.87;27.63
76751;SHT31;65216;51.090;-115.352;2023-10-08T05:43:27;21.87;27.58
76751;SHT31;65216;51.090;-115.352;2023-10-08T05:46:05;21.86;27.52
76751;SHT31;65216;51.090;-115.352;2023-10-08T05:48:51;21.85;27.53
76751;SHT31;65216;51.090;-115.352;2023-10-08T05:51:34;21.85;27.49
76751;SHT31;65216;51.090;-115.352;2023-10-08T05:54:22;21.85;27.51
76751;SHT31;65216;51.090;-115.352;2023-10-08T05:56:51;21.84;27.50
76751;SHT31;65216;51.090;-115.352;2023-10-08T06:04:54;21.83;27.49
76751;SHT31;65216;51.090;-115.352;2023-10-08T06:07:43;21.82;27.47
76751;SHT31;65216;51.090;-115.352;2023-10-08T06:10:21;21.83;27.43
76751;SHT31;65216;51.090;-115.352;2023-10-08T06:12:56;21.82;27.42
76751;SHT31;65216;51.090;-115.352;2023-10-08T06:15:42;21.81;27.45
76751;SHT31;65216;51.090;-115.352;2023-10-08T06:18:22;21.80;27.59
76751;SHT31;65216;51.090;-115.352;2023-10-08T06:21:05;21.79;27.67
76751;SHT31;65216;51.090;-115.352;2023-10-08T06:23:34;21.79;27.69
76751;SHT31;65216;51.090;-115.352;2023-10-08T06:26:05;21.78;27.69
76751;SHT31;65216;51.090;-115.352;2023-10-08T06:28:35;21.77;27.63
76751;SHT31;65216;51.090;-115.352;2023-10-08T06:31:04;21.77;27.61
76751;SHT31;65216;51.090;-115.352;2023-10-08T06:33:42;21.76;27.60
76751;SHT31;65216;51.090;-115.352;2023-10-08T06:36:10;21.75;27.61
76751;SHT31;65216;51.090;-115.352;2023-10-08T06:38:38;21.74;27.59
76751;SHT31;65216;51.090;-115.352;2023-10-08T06:41:08;21.73;27.59
76751;SHT31;65216;51.090;-115.352;2023-10-08T06:43:47;21.72;27.59
76751;SHT31;65216;51.090;-115.352;2023-10-08T06:46:16;21.70;27.58
76751;SHT31;65216;51.090;-115.352;2023-10-08T06:48:47;21.70;27.55
76751;SHT31;65216;51.090;-115.352;2023-10-08T06:51:15;21.69;27.53
76751;SHT31;65216;51.090;-115.352;2023-10-08T06:53:46;21.67;27.50
76751;SHT31;65216;51.090;-115.352;2023-10-08T06:56:14;21.65;27.53
76751;SHT31;65216;51.090;-115.352;2023-10-08T06:58:43;21.64;27.51
76751;SHT31;65216;51.090;-115.352;2023-10-08T07:01:15;21.61;27.54
76751;SHT31;65216;51.090;-115.352;2023-10-08T07:03:50;21.61;27.56
76751;SHT31;65216;51.090;-115.352;2023-10-08T07:06:28;21.58;27.54
76751;SHT31;65216;51.090;-115.352;2023-10-08T07:09:02;21.57;27.57
76751;SHT31;65216;51.090;-115.352;2023-10-08T07:11:31;21.56;27.58
76751;SHT31;65216;51.090;-115.352;2023-10-08T07:14:05;21.54;27.60
76751;SHT31;65216;51.090;-115.352;2023-10-08T07:16:32;21.53;27.60
76751;SHT31;65216;51.090;-115.352;2023-10-08T07:18:59;21.52;27.61
76751;SHT31;65216;51.090;-115.352;2023-10-08T07:21:41;21.51;27.60
76751;SHT31;65216;51.090;-115.352;2023-10-08T07:24:11;21.48;27.60
76751;SHT31;65216;51.090;-115.352;2023-10-08T07:26:42;21.48;27.62
76751;SHT31;65216;51.090;-115.352;2023-10-08T07:29:15;21.46;27.61
76751;SHT31;65216;51.090;-115.352;2023-10-08T07:31:45;21.45;27.59
76751;SHT31;65216;51.090;-115.352;2023-10-08T07:34:18;21.43;27.60
76751;SHT31;65216;51.090;-115.352;2023-10-08T07:36:49;21.42;27.60
76751;SHT31;65216;51.090;-115.352;2023-10-08T07:39:18;21.41;27.60
76751;SHT31;65216;51.090;-115.352;2023-10-08T07:41:59;21.40;27.60
76751;SHT31;65216;51.090;-115.352;2023-10-08T07:44:31;21.38;27.59
76751;SHT31;65216;51.090;-115.352;2023-10-08T07:47:04;21.36;27.60
76751;SHT31;65216;51.090;-115.352;2023-10-08T07:49:40;21.34;27.60
76751;SHT31;65216;51.090;-115.352;2023-10-08T07:52:10;21.34;27.60
76751;SHT31;65216;51.090;-115.352;2023-10-08T07:54:41;21.33;27.61
76751;SHT31;65216;51.090;-115.352;2023-10-08T07:57:07;21.31;27.60
76751;SHT31;65216;51.090;-115.352;2023-10-08T07:59:35;21.30;27.61
76751;SHT31;65216;51.090;-115.352;2023-10-08T08:02:12;21.29;27.64
76751;SHT31;65216;51.090;-115.352;2023-10-08T08:04:43;21.28;27.62
76751;SHT31;65216;51.090;-115.352;2023-10-08T08:07:12;21.27;27.60
76751;SHT31;65216;51.090;-115.352;2023-10-08T08:09:43;21.25;27.62
76751;SHT31;65216;51.090;-115.352;2023-10-08T08:12:18;21.23;27.64
76751;SHT31;65216;51.090;-115.352;2023-10-08T08:14:48;21.23;27.65
76751;SHT31;65216;51.090;-115.352;2023-10-08T08:17:17;21.21;27.68
76751;SHT31;65216;51.090;-115.352;2023-10-08T08:19:45;21.20;27.69
76751;SHT31;65216;51.090;-115.352;2023-10-08T08:22:15;21.19;27.70
76751;SHT31;65216;51.090;-115.352;2023-10-08T08:24:53;21.18;27.70
76751;SHT31;65216;51.090;-115.352;2023-10-08T08:27:41;21.18;27.69
76751;SHT31;65216;51.090;-115.352;2023-10-08T08:30:14;21.17;27.70
76751;SHT31;65216;51.090;-115.352;2023-10-08T08:32:41;21.17;27.70
76751;SHT31;65216;51.090;-115.352;2023-10-08T08:35:15;21.18;27.69
76751;SHT31;65216;51.090;-115.352;2023-10-08T08:37:42;21.18;27.69
76751;SHT31;65216;51.090;-115.352;2023-10-08T08:40:12;21.17;27.68
76751;SHT31;65216;51.090;-115.352;2023-10-08T08:42:45;21.19;27.68
76751;SHT31;65216;51.090;-115.352;2023-10-08T08:45:19;21.17;27.67
76751;SHT31;65216;51.090;-115.352;2023-10-08T08:47:51;21.17;27.68
76751;SHT31;65216;51.090;-115.352;2023-10-08T08:50:21;21.16;27.67
76751;SHT31;65216;51.090;-115.352;2023-10-08T08:52:48;21.17;27.67
76751;SHT31;65216;51.090;-115.352;2023-10-08T08:55:20;21.15;27.66
76751;SHT31;65216;51.090;-115.352;2023-10-08T08:57:48;21.15;27.67
76751;SHT31;65216;51.090;-115.352;2023-10-08T09:00:19;21.15;27.68
76751;SHT31;65216;51.090;-115.352;2023-10-08T09:02:46;21.14;27.68
76751;SHT31;65216;51.090;-115.352;2023-10-08T09:05:14;21.15;27.68
76751;SHT31;65216;51.090;-115.352;2023-10-08T09:10:28;21.13;27.69
76751;SHT31;65216;51.090;-115.352;2023-10-08T09:13:03;21.13;27.70
76751;SHT31;65216;51.090;-115.352;2023-10-08T09:15:32;21.14;27.68
76751;SHT31;65216;51.090;-115.352;2023-10-08T09:18:00;21.15;27.70
76751;SHT31;65216;51.090;-115.352;2023-10-08T09:20:30;21.14;27.70
76751;SHT31;65216;51.090;-115.352;2023-10-08T09:23:13;21.14;27.70
76751;SHT31;65216;51.090;-115.352;2023-10-08T09:25:46;21.13;27.69
76751;SHT31;65216;51.090;-115.352;2023-10-08T09:28:17;21.14;27.70
76751;SHT31;65216;51.090;-115.352;2023-10-08T09:30:50;21.13;27.69
76751;SHT31;65216;51.090;-115.352;2023-10-08T09:33:20;21.14;27.68
76751;SHT31;65216;51.090;-115.352;2023-10-08T09:35:47;21.15;27.69
76751;SHT31;65216;51.090;-115.352;2023-10-08T09:38:17;21.15;27.64
76751;SHT31;65216;51.090;-115.352;2023-10-08T09:40:49;21.16;27.66
76751;SHT31;65216;51.090;-115.352;2023-10-08T09:43:18;21.16;27.64
76751;SHT31;65216;51.090;-115.352;2023-10-08T09:45:47;21.16;27.63
76751;SHT31;65216;51.090;-115.352;2023-10-08T09:48:37;21.17;27.63
76751;SHT31;65216;51.090;-115.352;2023-10-08T09:51:10;21.17;27.60
76751;SHT31;65216;51.090;-115.352;2023-10-08T09:56:45;21.17;27.62
76751;SHT31;65216;51.090;-115.352;2023-10-08T09:59:16;21.18;27.60
76751;SHT31;65216;51.090;-115.352;2023-10-08T10:01:47;21.19;27.59
76751;SHT31;65216;51.090;-115.352;2023-10-08T10:04:25;21.19;27.59
76751;SHT31;65216;51.090;-115.352;2023-10-08T10:06:58;21.20;27.59
76751;SHT31;65216;51.090;-115.352;2023-10-08T10:09:38;21.21;27.59
76751;SHT31;65216;51.090;-115.352;2023-10-08T10:12:10;21.20;27.58
76751;SHT31;65216;51.090;-115.352;2023-10-08T10:14:45;21.19;27.54
76751;SHT31;65216;51.090;-115.352;2023-10-08T10:19:57;21.17;27.56
76751;SHT31;65216;51.090;-115.352;2023-10-08T10:22:30;21.17;27.57
76751;SHT31;65216;51.090;-115.352;2023-10-08T10:25:02;21.17;27.55
76751;SHT31;65216;51.090;-115.352;2023-10-08T10:27:42;21.15;27.58
76751;SHT31;65216;51.090;-115.352;2023-10-08T10:30:21;21.14;27.59
76751;SHT31;65216;51.090;-115.352;2023-10-08T10:32:52;21.13;27.58
76751;SHT31;65216;51.090;-115.352;2023-10-08T10:35:20;21.13;27.57
76751;SHT31;65216;51.090;-115.352;2023-10-08T10:37:50;21.12;27.59
76751;SHT31;65216;51.090;-115.352;2023-10-08T10:40:22;21.12;27.60
76751;SHT31;65216;51.090;-115.352;2023-10-08T10:43:06;21.11;27.60
76751;SHT31;65216;51.090;-115.352;2023-10-08T10:45:41;21.12;27.60
76751;SHT31;65216;51.090;-115.352;2023-10-08T10:48:13;21.11;27.60
76751;SHT31;65216;51.090;-115.352;2023-10-08T10:50:48;21.10;27.60
76751;SHT31;65216;51.090;-115.352;2023-10-08T10:53:33;21.09;27.60
76751;SHT31;65216;51.090;-115.352;2023-10-08T10:56:19;21.08;27.61
76751;SHT31;65216;51.090;-115.352;2023-10-08T10:58:58;21.08;27.61
76751;SHT31;65216;51.090;-115.352;2023-10-08T11:01:31;21.09;27.60
76751;SHT31;65216;51.090;-115.352;2023-10-08T11:04:12;21.07;27.60
76751;SHT31;65216;51.090;-115.352;2023-10-08T11:06:45;21.07;27.60
76751;SHT31;65216;51.090;-115.352;2023-10-08T11:09:19;21.08;27.60
76751;SHT31;65216;51.090;-115.352;2023-10-08T11:12:01;21.09;27.60
76751;SHT31;65216;51.090;-115.352;2023-10-08T11:14:37;21.08;27.60
76751;SHT31;65216;51.090;-115.352;2023-10-08T11:17:11;21.08;27.60
76751;SHT31;65216;51.090;-115.352;2023-10-08T11:19:54;21.09;27.59
76751;SHT31;65216;51.090;-115.352;2023-10-08T11:22:21;21.09;27.57
76751;SHT31;65216;51.090;-115.352;2023-10-08T11:25:19;21.09;27.57
76751;SHT31;65216;51.090;-115.352;2023-10-08T11:27:56;21.08;27.60
76751;SHT31;65216;51.090;-115.352;2023-10-08T11:30:34;21.08;27.60
76751;SHT31;65216;51.090;-115.352;2023-10-08T11:33:03;21.08;27.60
76751;SHT31;65216;51.090;-115.352;2023-10-08T11:35:32;21.08;27.60
76751;SHT31;65216;51.090;-115.352;2023-10-08T11:38:00;21.08;27.57
76751;SHT31;65216;51.090;-115.352;2023-10-08T11:40:28;21.08;27.60
76751;SHT31;65216;51.090;-115.352;2023-10-08T11:43:14;21.08;27.60
76751;SHT31;65216;51.090;-115.352;2023-10-08T11:45:44;21.08;27.59
76751;SHT31;65216;51.090;-115.352;2023-10-08T11:48:14;21.08;27.60
76751;SHT31;65216;51.090;-115.352;2023-10-08T11:50:47;21.08;27.60
76751;SHT31;65216;51.090;-115.352;2023-10-08T11:53:18;21.07;27.60
76751;SHT31;65216;51.090;-115.352;2023-10-08T11:55:45;21.08;27.57
76751;SHT31;65216;51.090;-115.352;2023-10-08T11:58:19;21.08;27.55
76751;SHT31;65216;51.090;-115.352;2023-10-08T12:00:58;21.09;27.58
76751;SHT31;65216;51.090;-115.352;2023-10-08T12:03:29;21.09;27.57
76751;SHT31;65216;51.090;-115.352;2023-10-08T12:06:00;21.09;27.53
76751;SHT31;65216;51.090;-115.352;2023-10-08T12:08:30;21.08;27.55
76751;SHT31;65216;51.090;-115.352;2023-10-08T12:11:04;21.07;27.57
76751;SHT31;65216;51.090;-115.352;2023-10-08T12:13:40;21.08;27.57
76751;SHT31;65216;51.090;-115.352;2023-10-08T12:16:15;21.07;27.57
76751;SHT31;65216;51.090;-115.352;2023-10-08T12:18:48;21.07;27.58
76751;SHT31;65216;51.090;-115.352;2023-10-08T12:21:19;21.06;27.58
76751;SHT31;65216;51.090;-115.352;2023-10-08T12:23:47;21.06;27.60
76751;SHT31;65216;51.090;-115.352;2023-10-08T12:26:17;21.06;27.60
76751;SHT31;65216;51.090;-115.352;2023-10-08T12:28:47;21.06;27.60
76751;SHT31;65216;51.090;-115.352;2023-10-08T12:31:18;21.06;27.57
76751;SHT31;65216;51.090;-115.352;2023-10-08T12:33:52;21.05;27.59
76751;SHT31;65216;51.090;-115.352;2023-10-08T12:36:23;21.05;27.58
76751;SHT31;65216;51.090;-115.352;2023-10-08T12:38:52;21.06;27.58
76751;SHT31;65216;51.090;-115.352;2023-10-08T12:41:23;21.05;27.59
76751;SHT31;65216;51.090;-115.352;2023-10-08T12:43:54;21.04;27.60
76751;SHT31;65216;51.090;-115.352;2023-10-08T12:46:23;21.04;27.60
76751;SHT31;65216;51.090;-115.352;2023-10-08T12:48:51;21.04;27.60
76751;SHT31;65216;51.090;-115.352;2023-10-08T12:51:20;21.03;27.58
76751;SHT31;65216;51.090;-115.352;2023-10-08T12:53:53;21.03;27.59
76751;SHT31;65216;51.090;-115.352;2023-10-08T12:56:32;21.02;27.60
76751;SHT31;65216;51.090;-115.352;2023-10-08T12:59:01;21.02;27.60
76751;SHT31;65216;51.090;-115.352;2023-10-08T13:01:32;21.02;27.61
76751;SHT31;65216;51.090;-115.352;2023-10-08T13:04:06;21.01;27.60
76751;SHT31;65216;51.090;-115.352;2023-10-08T13:06:37;21.01;27.61
76751;SHT31;65216;51.090;-115.352;2023-10-08T13:09:04;21.01;27.60
76751;SHT31;65216;51.090;-115.352;2023-10-08T13:11:38;21.02;27.60
76751;SHT31;65216;51.090;-115.352;2023-10-08T13:14:05;21.05;27.59
76751;SHT31;65216;51.090;-115.352;2023-10-08T13:16:32;21.06;27.58
76751;SHT31;65216;51.090;-115.352;2023-10-08T13:19:02;21.07;27.53
76751;SHT31;65216;51.090;-115.352;2023-10-08T13:21:35;21.09;27.50
76751;SHT31;65216;51.090;-115.352;2023-10-08T13:24:03;21.10;27.50
76751;SHT31;65216;51.090;-115.352;2023-10-08T13:26:34;21.11;27.50
76751;SHT31;65216;51.090;-115.352;2023-10-08T13:29:05;21.11;27.47
76751;SHT31;65216;51.090;-115.352;2023-10-08T13:31:34;21.12;27.44
76751;SHT31;65216;51.090;-115.352;2023-10-08T13:34:01;21.13;27.43
76751;SHT31;65216;51.090;-115.352;2023-10-08T13:36:34;21.14;27.41
76751;SHT31;65216;51.090;-115.352;2023-10-08T13:39:07;21.14;27.43
76751;SHT31;65216;51.090;-115.352;2023-10-08T13:41:45;21.15;27.41
76751;SHT31;65216;51.090;-115.352;2023-10-08T13:44:15;21.16;27.41
76751;SHT31;65216;51.090;-115.352;2023-10-08T13:46:54;21.16;27.40
76751;SHT31;65216;51.090;-115.352;2023-10-08T13:49:24;21.17;27.40
76751;SHT31;65216;51.090;-115.352;2023-10-08T13:51:54;21.19;27.37
76751;SHT31;65216;51.090;-115.352;2023-10-08T13:54:21;21.22;27.31
76751;SHT31;65216;51.090;-115.352;2023-10-08T13:56:55;21.25;27.31
76751;SHT31;65216;51.090;-115.352;2023-10-08T13:59:26;21.29;27.25
76751;SHT31;65216;51.090;-115.352;2023-10-08T14:01:56;21.34;27.20
76751;SHT31;65216;51.090;-115.352;2023-10-08T14:04:25;21.38;27.18
76751;SHT31;65216;51.090;-115.352;2023-10-08T14:06:55;21.42;27.12
76751;SHT31;65216;51.090;-115.352;2023-10-08T14:09:24;21.45;27.09
76751;SHT31;65216;51.090;-115.352;2023-10-08T14:11:57;21.50;27.08
76751;SHT31;65216;51.090;-115.352;2023-10-08T14:14:24;21.54;27.00
76751;SHT31;65216;51.090;-115.352;2023-10-08T14:16:58;21.57;26.97
76751;SHT31;65216;51.090;-115.352;2023-10-08T14:19:39;21.61;26.94
76751;SHT31;65216;51.090;-115.352;2023-10-08T14:22:32;21.64;26.87
76751;SHT31;65216;51.090;-115.352;2023-10-08T14:25:01;21.68;26.88
76751;SHT31;65216;51.090;-115.352;2023-10-08T14:27:28;21.69;26.83
76751;SHT31;65216;51.090;-115.352;2023-10-08T14:29:57;21.73;26.80
76751;SHT31;65216;51.090;-115.352;2023-10-08T14:32:30;21.75;26.80
76751;SHT31;65216;51.090;-115.352;2023-10-08T14:34:58;21.76;26.80
76751;SHT31;65216;51.090;-115.352;2023-10-08T14:37:46;21.79;26.80
76751;SHT31;65216;51.090;-115.352;2023-10-08T14:43:21;21.84;26.81
76751;SHT31;65216;51.090;-115.352;2023-10-08T14:45:49;21.85;26.82
76751;SHT31;65216;51.090;-115.352;2023-10-08T14:48:18;21.88;26.81
76751;SHT31;65216;51.090;-115.352;2023-10-08T14:50:45;21.89;26.82
76751;SHT31;65216;51.090;-115.352;2023-10-08T14:53:12;21.91;26.89
76751;SHT31;65216;51.090;-115.352;2023-10-08T14:55:39;21.94;26.91
76751;SHT31;65216;51.090;-115.352;2023-10-08T14:58:08;21.95;26.90
76751;SHT31;65216;51.090;-115.352;2023-10-08T15:00:37;21.98;26.89
76751;SHT31;65216;51.090;-115.352;2023-10-08T15:03:07;22.00;26.91
76751;SHT31;65216;51.090;-115.352;2023-10-08T15:05:34;22.02;26.92
76751;SHT31;65216;51.090;-115.352;2023-10-08T15:08:03;22.05;26.90
76751;SHT31;65216;51.090;-115.352;2023-10-08T15:10:35;22.07;26.91
76751;SHT31;65216;51.090;-115.352;2023-10-08T15:13:02;22.07;26.93
76751;SHT31;65216;51.090;-115.352;2023-10-08T15:15:29;22.08;26.96
76751;SHT31;65216;51.090;-115.352;2023-10-08T15:18:00;22.10;26.95
76751;SHT31;65216;51.090;-115.352;2023-10-08T15:20:31;22.14;26.97
76751;SHT31;65216;51.090;-115.352;2023-10-08T15:22:59;22.14;27.00
76751;SHT31;65216;51.090;-115.352;2023-10-08T15:25:26;22.17;27.00
76751;SHT31;65216;51.090;-115.352;2023-10-08T15:27:54;22.18;27.01
76751;SHT31;65216;51.090;-115.352;2023-10-08T15:30:21;22.20;27.10
76751;SHT31;65216;51.090;-115.352;2023-10-08T15:32:48;22.21;27.09
76751;SHT31;65216;51.090;-115.352;2023-10-08T15:35:16;22.22;27.21
76751;SHT31;65216;51.090;-115.352;2023-10-08T15:37:50;22.24;27.29
76751;SHT31;65216;51.090;-115.352;2023-10-08T15:40:19;22.25;27.29
76751;SHT31;65216;51.090;-115.352;2023-10-08T15:42:48;22.29;27.20
76751;SHT31;65216;51.090;-115.352;2023-10-08T15:45:19;22.31;27.19
76751;SHT31;65216;51.090;-115.352;2023-10-08T15:47:48;22.32;27.17